»·PEaware :: TEXAN16 KRND-KRND

TEXAN16 :: KRND-KRND

FLIGHT INFORMATION

Flight Status: Arrived
Operator: Unknown
More flights by this operator :: More flights under this callsign
Pilot: Indie I. (23337)
Aircraft: BEECH AIRCRAFT T-6A TEXAN
(TEX2)
More flights by this aircraft type
Origin: KRND Randolph AFB
United States
Destination: KRND Randolph AFB
United States
More flights between these airports :: More routes between these airports
Route: KRND KRND
File this flight plan on PilotEdge
Remarks: pattern only
Altitude:
(Current/Filed)
1,800ft
Speed:
(Current/Filed)
200kts
Departed: 19-Aug-20 11:05 AM
Arrived: 19-Aug-20 11:46 AM
Distance/Time
Traveled:
2nm/0:41
Distance/Time
To Go:
Arrived

Flight Plot

Page will automatically refresh every two minutes.

Flight plan parsing failed; only flown route is shown


Map Options




Map Legend


Flown Route
Filed Route
Departure Airport
Arrival Airport
Navaid (VOR, NDB)
Fix

Horizontal Profiles

Position Reports

Time Latitude Longitude Heading Altitude Ground
Speed
19-Aug-20 10:59 29.534457 -98.292878 150 765ft 0kts
19-Aug-20 11:00 29.535011 -98.291591 95 765ft 2kts
19-Aug-20 11:01 29.534864 -98.291298 167 765ft 0kts
19-Aug-20 11:02 29.534861 -98.291297 167 765ft 0kts
19-Aug-20 11:03 29.534518 -98.292676 249 765ft 12kts
19-Aug-20 11:04 29.512259 -98.279748 192 1731ft 156kts
19-Aug-20 11:05 29.535670 -98.312080 331 1833ft 141kts
19-Aug-20 11:06 29.534331 -98.292832 150 774ft 103kts
19-Aug-20 11:07 29.499862 -98.284243 271 1896ft 190kts
19-Aug-20 11:08 29.538751 -98.313967 330 1734ft 130kts
19-Aug-20 11:09 29.531397 -98.290916 150 776ft 104kts
19-Aug-20 11:10 29.494054 -98.286484 244 1450ft 234kts
19-Aug-20 11:11 29.531595 -98.330260 330 1777ft 217kts
19-Aug-20 11:12 29.563777 -98.312421 136 1781ft 208kts
19-Aug-20 11:13 29.520091 -98.299948 289 1739ft 163kts
19-Aug-20 11:14 29.545564 -98.302522 119 1035ft 132kts
19-Aug-20 11:15 29.518894 -98.282523 148 1120ft 166kts
19-Aug-20 11:16 29.530356 -98.307854 329 1839ft 143kts
19-Aug-20 11:17 29.536739 -98.294422 150 833ft 118kts
19-Aug-20 11:18 29.502345 -98.274318 210 1290ft 218kts
19-Aug-20 11:20 29.515994 -98.323788 332 1907ft 216kts
19-Aug-20 11:21 29.569564 -98.356025 329 1518ft 198kts
19-Aug-20 11:22 29.581432 -98.324333 135 1285ft 148kts
19-Aug-20 11:23 29.549035 -98.302537 150 1092ft 127kts
19-Aug-20 11:24 29.521763 -98.284574 150 946ft 148kts
19-Aug-20 11:25 29.494610 -98.310087 329 1703ft 216kts
19-Aug-20 11:26 29.547528 -98.341453 329 1836ft 220kts
19-Aug-20 11:27 29.549599 -98.302514 153 1784ft 219kts
19-Aug-20 11:28 29.526976 -98.306882 331 1720ft 127kts
19-Aug-20 11:29 29.539403 -98.296237 150 906ft 121kts
19-Aug-20 11:30 29.509547 -98.284077 245 1936ft 151kts
19-Aug-20 11:31 29.540541 -98.314904 350 1734ft 130kts
19-Aug-20 11:32 29.531093 -98.290695 149 771ft 96kts
19-Aug-20 11:32 29.505625 -98.285329 270 1668ft 173kts
19-Aug-20 11:34 29.545590 -98.310960 59 1428ft 129kts
19-Aug-20 11:35 29.526957 -98.287962 150 776ft 114kts
19-Aug-20 11:36 29.492090 -98.304110 290 1779ft 219kts
19-Aug-20 11:36 29.535027 -98.333420 332 1810ft 216kts
19-Aug-20 11:37 29.584524 -98.361812 41 1537ft 168kts
19-Aug-20 11:39 29.565901 -98.318201 192 1196ft 164kts
19-Aug-20 11:39 29.517070 -98.334546 179 1292ft 238kts
19-Aug-20 11:40 29.492850 -98.335193 2 1774ft 206kts
19-Aug-20 11:41 29.548510 -98.337393 326 1839ft 218kts
19-Aug-20 11:42 29.589093 -98.344680 89 1317ft 171kts
19-Aug-20 11:43 29.564238 -98.312564 151 1258ft 132kts
19-Aug-20 11:44 29.535273 -98.293439 150 780ft 98kts
19-Aug-20 11:45 29.527611 -98.286402 291 771ft 32kts
19-Aug-20 11:46 29.530325 -98.288046 330 765ft 21kts
19-Aug-20 11:47 29.534589 -98.290858 335 765ft 13kts
19-Aug-20 11:48 29.534648 -98.291330 205 765ft 0kts
19-Aug-20 11:49 29.534646 -98.291331 205 765ft 0kts
19-Aug-20 11:50 29.534644 -98.291332 205 765ft 0kts
19-Aug-20 11:51 29.534642 -98.291333 205 765ft 0kts
19-Aug-20 11:52 29.534499 -98.291863 275 765ft 0kts
19-Aug-20 11:53 29.526404 -98.287454 151 838ft 135kts
19-Aug-20 11:54 29.490723 -98.303408 296 1887ft 220kts
19-Aug-20 11:55 29.542904 -98.339423 331 1803ft 221kts
19-Aug-20 11:56 29.551271 -98.304654 149 1841ft 214kts
19-Aug-20 11:57 29.525956 -98.307193 327 1801ft 150kts
19-Aug-20 11:58 29.546488 -98.302250 139 1077ft 124kts
19-Aug-20 11:59 29.517262 -98.281808 151 1276ft 178kts
19-Aug-20 12:00 29.502485 -98.309960 329 1891ft 205kts

Navigation Log

Ident Type
Flight plan parsing failed, navigation log unavailable